WetterOnline ( http://www.wetteronline.de )

Wetter aktuell Würzburg

Aktuelles Wetter: Würzburg (272m)

6-stündlich | Neueste Meldungen
Ortszeit Temperatur Wetter
Fr, 17.08. 2:00 19.2° C wolkig
Do, 16.08. 20:00 29.2° C fast wolkenlos
Do, 16.08. 14:00 28.5° C wolkenlos
Do, 16.08. 8:00 14.6° C leicht bewölkt
Do, 16.08. 2:00 15.3° C leicht bewölkt
Mi, 15.08. 20:00 23.0° C wolkenlos
Mi, 15.08. 14:00 22.9° C bedeckt
Mi, 15.08. 8:00 16.6° C wolkig
Ortszeit Temperatur Wetter
Fr, 17.08. 3:00 18.3° C leicht bewölkt
Fr, 17.08. 2:50 18.3° C leicht bewölkt
Fr, 17.08. 2:40 18.4° C leicht bewölkt
Fr, 17.08. 2:30 19.0° C leicht bewölkt
Fr, 17.08. 2:20 19.0° C leicht bewölkt
Fr, 17.08. 2:10 19.2° C leicht bewölkt
Fr, 17.08. 2:00 19.2° C wolkig
Fr, 17.08. 1:30 19.4° C wolkig
Fr, 17.08. 1:00 19.8° C leicht bewölkt
Fr, 17.08. 0:30 20.5° C leicht bewölkt
Fr, 17.08. 0:00 21.1° C fast wolkenlos
Ortszeit Relative Feuchte Sichtweite
Fr, 17.08. 2:00 65% 23 km
Do, 16.08. 20:00 30% 30 km
Do, 16.08. 14:00 36% 35 km
Do, 16.08. 8:00 84% 12 km
Do, 16.08. 2:00 83% 16 km
Mi, 15.08. 20:00 49% 30 km
Mi, 15.08. 14:00 47% 35 km
Mi, 15.08. 8:00 87% 7 km
Ortszeit Relative Feuchte Sichtweite
Fr, 17.08. 3:00 68% 30 km
Fr, 17.08. 2:50 68% -
Fr, 17.08. 2:40 69% -
Fr, 17.08. 2:30 65% 26 km
Fr, 17.08. 2:20 65% -
Fr, 17.08. 2:10 63% -
Fr, 17.08. 2:00 65% 23 km
Fr, 17.08. 1:30 65% 50 km
Fr, 17.08. 1:00 63% 45 km
Fr, 17.08. 0:30 61% 40 km
Fr, 17.08. 0:00 58% 25 km
Ortszeit Niederschlagsmenge Niederschlagsart
Fr, 17.08. 2:00 0.0 l/m2 in 6 Std. -
Do, 16.08. 20:00 0.0 l/m2 in 12 Std. -
Do, 16.08. 14:00 0.1 l/m2 in 6 Std. Regen
Do, 16.08. 8:00 0.0 l/m2 in 12 Std. -
Do, 16.08. 2:00 0.0 l/m2 in 6 Std. -
Mi, 15.08. 20:00 0.0 l/m2 in 12 Std. -
Mi, 15.08. 14:00 0.0 l/m2 in 6 Std. -
Mi, 15.08. 8:00 0.0 l/m2 in 12 Std. -
Ortszeit Niederschlagsmenge Niederschlagsart
Fr, 17.08. 3:00 0.0 l/m2 in 1 Std. -
Fr, 17.08. 2:50 keine Meldung -
Fr, 17.08. 2:40 keine Meldung -
Fr, 17.08. 2:30 0.0 l/m2 in 1 Std. -
Fr, 17.08. 2:20 keine Meldung -
Fr, 17.08. 2:10 keine Meldung -
Fr, 17.08. 2:00 0.0 l/m2 in 1 Std. -
Fr, 17.08. 1:30 0.0 l/m2 in 1 Std. -
Fr, 17.08. 1:00 0.0 l/m2 in 1 Std. -
Fr, 17.08. 0:30 0.0 l/m2 in 1 Std. -
Fr, 17.08. 0:00 0.0 l/m2 in 1 Std. -
Ortszeit Stärke Spitze Richtung
km/h Bft. km/h Grad Sektor
Fr, 17.08. 2:00 4 1 11 190° S
Do, 16.08. 20:00 4 1 25 210° SW
Do, 16.08. 14:00 11 2 22 140° SO
Do, 16.08. 8:00 0 0 7 - -
Do, 16.08. 2:00 4 1 14 160° S
Mi, 15.08. 20:00 7 2 28 30° NO
Mi, 15.08. 14:00 9 2 30 340° N
Mi, 15.08. 8:00 6 1 19 160° S
Ortszeit Stärke Spitze Richtung
km/h Bft. km/h Grad Sektor
Fr, 17.08. 3:00 4 1 7 150° SO
Fr, 17.08. 2:50 4 1 - 150° SO
Fr, 17.08. 2:40 4 1 - 180° S
Fr, 17.08. 2:30 4 1 7 160° S
Fr, 17.08. 2:20 4 1 - 160° S
Fr, 17.08. 2:10 4 1 - 260° W
Fr, 17.08. 2:00 4 1 11 190° S
Fr, 17.08. 1:30 7 2 11 160° S
Fr, 17.08. 1:00 7 2 7 150° SO
Fr, 17.08. 0:30 6 1 7 170° S
Fr, 17.08. 0:00 7 2 7 160° S
Ortszeit Untergrenze Bedeckung Gattung
total tief tief mittel hoch
Fr, 17.08. 2:00 10500 m 8/8 0/8 - - -
Do, 16.08. 20:00 2400 m 1/8 1/8 - - -
Do, 16.08. 14:00 - 0/8 0/8 - - -
Do, 16.08. 8:00 10500 m 3/8 0/8 - - -
Do, 16.08. 2:00 2700 m 4/8 1/8 - - -
Mi, 15.08. 20:00 - 0/8 0/8 - - -
Mi, 15.08. 14:00 1440 m 8/8 8/8 - - -
Mi, 15.08. 8:00 1290 m 5/8 4/8 - - -
Ortszeit Bedeckungsgrad in Achtel und Wolkenuntergrenze
Fr, 17.08. 3:00 1(2700m) 3(10500m)
Fr, 17.08. 2:50 1(2700m) 3(10500m) 4(10500m)
Fr, 17.08. 2:40 3(10500m) 5(12000m)
Fr, 17.08. 2:30 3(10500m) 5(12000m)
Fr, 17.08. 2:20 3(10500m) 5(12000m)
Fr, 17.08. 2:10 5(10500m)
Fr, 17.08. 2:00 8(10500m)
Fr, 17.08. 1:30 7(10500m) 8(10500m)
Fr, 17.08. 1:00 5(10500m) 6(10500m)
Fr, 17.08. 0:30 1(2700m) 3(10500m)
Fr, 17.08. 0:00 1(3000m)
Ortszeit Luftdruck NN (hPa) Tendenz (hPa in 3 Std.)
Fr, 17.08. 2:00 1014 + 0,4
Do, 16.08. 20:00 1013 - 0,8
Do, 16.08. 14:00 1016 - 1,7
Do, 16.08. 8:00 1020 - 0,3
Do, 16.08. 2:00 1020 - 0,1
Mi, 15.08. 20:00 1019 - 0,3
Mi, 15.08. 14:00 1020 - 0,4
Mi, 15.08. 8:00 1020 + 0,9
Ortszeit Luftdruck NN (hPa) Tendenz (hPa in 3 Std.)
Fr, 17.08. 3:00 1014 - 0,1
Fr, 17.08. 2:50 1014 keine Meldung
Fr, 17.08. 2:40 1014 keine Meldung
Fr, 17.08. 2:30 1014 0,0
Fr, 17.08. 2:20 1014 keine Meldung
Fr, 17.08. 2:10 1014 keine Meldung
Fr, 17.08. 2:00 1014 + 0,4
Fr, 17.08. 1:30 1014 + 0,5
Fr, 17.08. 1:00 1014 + 0,4
Fr, 17.08. 0:30 1014 + 0,4
Fr, 17.08. 0:00 1014 + 0,4
Ortszeit Schneehöhe (cm)
Fr, 17.08. 2:00 -
Do, 16.08. 20:00 -
Do, 16.08. 14:00 -
Do, 16.08. 8:00 -
Do, 16.08. 2:00 -
Mi, 15.08. 20:00 -
Mi, 15.08. 14:00 -
Mi, 15.08. 8:00 -
Ortszeit Schneehöhe (cm)
Fr, 17.08. 3:00 -
Fr, 17.08. 2:50 -
Fr, 17.08. 2:40 -
Fr, 17.08. 2:30 -
Fr, 17.08. 2:20 -
Fr, 17.08. 2:10 -
Fr, 17.08. 2:00 -
Fr, 17.08. 1:30 -
Fr, 17.08. 1:00 -
Fr, 17.08. 0:30 -
Fr, 17.08. 0:00 -
Link zu dieser Seite / Seite empfehlen

Das Wetter in ...